sensor_id;sensor_type;location;lat;lon;timestamp;P1;durP1;ratioP1;P2;durP2;ratioP2
20623;SDS011;10471;42.736;23.346;2024-01-11T00:00:35;74.33;;;32.00;;
20623;SDS011;10471;42.736;23.346;2024-01-11T00:03:00;76.63;;;32.40;;
20623;SDS011;10471;42.736;23.346;2024-01-11T00:05:26;68.70;;;30.40;;
20623;SDS011;10471;42.736;23.346;2024-01-11T00:07:51;70.83;;;30.17;;
20623;SDS011;10471;42.736;23.346;2024-01-11T00:10:17;67.30;;;30.33;;
20623;SDS011;10471;42.736;23.346;2024-01-11T00:12:43;69.73;;;30.47;;
20623;SDS011;10471;42.736;23.346;2024-01-11T00:15:08;59.70;;;28.17;;
20623;SDS011;10471;42.736;23.346;2024-01-11T00:17:34;52.03;;;23.87;;
20623;SDS011;10471;42.736;23.346;2024-01-11T00:20:01;49.57;;;22.63;;
20623;SDS011;10471;42.736;23.346;2024-01-11T00:22:26;51.00;;;23.73;;
20623;SDS011;10471;42.736;23.346;2024-01-11T00:24:52;70.80;;;30.03;;
20623;SDS011;10471;42.736;23.346;2024-01-11T00:27:18;65.97;;;28.00;;
20623;SDS011;10471;42.736;23.346;2024-01-11T00:29:43;53.40;;;25.90;;
20623;SDS011;10471;42.736;23.346;2024-01-11T00:32:09;61.93;;;26.17;;
20623;SDS011;10471;42.736;23.346;2024-01-11T00:34:34;53.80;;;25.00;;
20623;SDS011;10471;42.736;23.346;2024-01-11T00:37:01;61.97;;;27.90;;
20623;SDS011;10471;42.736;23.346;2024-01-11T00:39:26;55.90;;;25.87;;
20623;SDS011;10471;42.736;23.346;2024-01-11T00:41:51;55.80;;;25.47;;
20623;SDS011;10471;42.736;23.346;2024-01-11T00:44:17;59.63;;;26.77;;
20623;SDS011;10471;42.736;23.346;2024-01-11T00:46:42;54.60;;;24.43;;
20623;SDS011;10471;42.736;23.346;2024-01-11T00:49:07;60.00;;;26.60;;
20623;SDS011;10471;42.736;23.346;2024-01-11T00:51:33;59.93;;;27.67;;
20623;SDS011;10471;42.736;23.346;2024-01-11T00:53:58;61.90;;;27.30;;
20623;SDS011;10471;42.736;23.346;2024-01-11T00:56:23;67.20;;;28.43;;
20623;SDS011;10471;42.736;23.346;2024-01-11T00:58:49;70.57;;;30.50;;
20623;SDS011;10471;42.736;23.346;2024-01-11T01:01:14;71.50;;;30.80;;
20623;SDS011;10471;42.736;23.346;2024-01-11T01:03:40;79.67;;;33.40;;
20623;SDS011;10471;42.736;23.346;2024-01-11T01:06:05;74.30;;;33.47;;
20623;SDS011;10471;42.736;23.346;2024-01-11T01:08:31;74.60;;;32.97;;
20623;SDS011;10471;42.736;23.346;2024-01-11T01:10:56;63.20;;;30.67;;
20623;SDS011;10471;42.736;23.346;2024-01-11T01:13:22;94.60;;;37.90;;
20623;SDS011;10471;42.736;23.346;2024-01-11T01:15:47;80.13;;;34.70;;
20623;SDS011;10471;42.736;23.346;2024-01-11T01:18:13;66.63;;;26.27;;
20623;SDS011;10471;42.736;23.346;2024-01-11T01:20:39;64.73;;;28.83;;
20623;SDS011;10471;42.736;23.346;2024-01-11T01:23:04;74.00;;;30.47;;
20623;SDS011;10471;42.736;23.346;2024-01-11T01:25:29;65.10;;;29.93;;
20623;SDS011;10471;42.736;23.346;2024-01-11T01:27:55;59.20;;;26.43;;
20623;SDS011;10471;42.736;23.346;2024-01-11T01:30:20;55.63;;;25.70;;
20623;SDS011;10471;42.736;23.346;2024-01-11T01:32:46;59.30;;;25.70;;
20623;SDS011;10471;42.736;23.346;2024-01-11T01:35:12;70.87;;;31.17;;
20623;SDS011;10471;42.736;23.346;2024-01-11T01:37:37;92.53;;;36.10;;
20623;SDS011;10471;42.736;23.346;2024-01-11T01:40:03;113.60;;;41.73;;
20623;SDS011;10471;42.736;23.346;2024-01-11T01:42:28;97.40;;;37.20;;
20623;SDS011;10471;42.736;23.346;2024-01-11T01:44:54;87.43;;;36.33;;
20623;SDS011;10471;42.736;23.346;2024-01-11T01:47:19;94.07;;;35.23;;
20623;SDS011;10471;42.736;23.346;2024-01-11T01:49:45;66.47;;;27.73;;
20623;SDS011;10471;42.736;23.346;2024-01-11T01:52:13;51.23;;;23.97;;
20623;SDS011;10471;42.736;23.346;2024-01-11T01:54:39;48.97;;;22.73;;
20623;SDS011;10471;42.736;23.346;2024-01-11T01:57:05;51.97;;;22.07;;
20623;SDS011;10471;42.736;23.346;2024-01-11T01:59:34;57.37;;;25.17;;
20623;SDS011;10471;42.736;23.346;2024-01-11T02:02:00;51.87;;;24.00;;
20623;SDS011;10471;42.736;23.346;2024-01-11T02:04:25;52.23;;;22.37;;
20623;SDS011;10471;42.736;23.346;2024-01-11T02:06:52;47.63;;;21.83;;
20623;SDS011;10471;42.736;23.346;2024-01-11T02:09:20;54.77;;;23.63;;
20623;SDS011;10471;42.736;23.346;2024-01-11T02:11:45;54.23;;;23.40;;
20623;SDS011;10471;42.736;23.346;2024-01-11T02:14:11;53.60;;;23.37;;
20623;SDS011;10471;42.736;23.346;2024-01-11T02:16:37;49.03;;;21.77;;
20623;SDS011;10471;42.736;23.346;2024-01-11T02:19:03;51.33;;;21.77;;
20623;SDS011;10471;42.736;23.346;2024-01-11T02:21:31;55.50;;;24.17;;
20623;SDS011;10471;42.736;23.346;2024-01-11T02:26:30;49.57;;;23.37;;
20623;SDS011;10471;42.736;23.346;2024-01-11T02:28:56;48.63;;;22.47;;
20623;SDS011;10471;42.736;23.346;2024-01-11T02:31:21;46.73;;;23.07;;
20623;SDS011;10471;42.736;23.346;2024-01-11T02:33:47;58.27;;;23.90;;
20623;SDS011;10471;42.736;23.346;2024-01-11T02:36:13;54.87;;;24.40;;
20623;SDS011;10471;42.736;23.346;2024-01-11T02:38:39;45.97;;;23.40;;
20623;SDS011;10471;42.736;23.346;2024-01-11T02:41:07;63.97;;;25.07;;
20623;SDS011;10471;42.736;23.346;2024-01-11T02:43:33;53.10;;;23.53;;
20623;SDS011;10471;42.736;23.346;2024-01-11T02:46:01;56.53;;;24.30;;
20623;SDS011;10471;42.736;23.346;2024-01-11T02:48:27;59.80;;;23.43;;
20623;SDS011;10471;42.736;23.346;2024-01-11T02:50:54;53.23;;;24.07;;
20623;SDS011;10471;42.736;23.346;2024-01-11T02:53:21;53.83;;;24.77;;
20623;SDS011;10471;42.736;23.346;2024-01-11T02:55:46;55.93;;;24.80;;
20623;SDS011;10471;42.736;23.346;2024-01-11T02:58:11;53.67;;;24.33;;
20623;SDS011;10471;42.736;23.346;2024-01-11T03:00:37;49.60;;;23.57;;
20623;SDS011;10471;42.736;23.346;2024-01-11T03:03:02;54.50;;;24.27;;
20623;SDS011;10471;42.736;23.346;2024-01-11T03:05:28;56.50;;;24.27;;
20623;SDS011;10471;42.736;23.346;2024-01-11T03:07:53;48.70;;;22.63;;
20623;SDS011;10471;42.736;23.346;2024-01-11T03:10:19;54.30;;;23.70;;
20623;SDS011;10471;42.736;23.346;2024-01-11T03:12:44;52.67;;;23.80;;
20623;SDS011;10471;42.736;23.346;2024-01-11T03:15:09;56.00;;;25.37;;
20623;SDS011;10471;42.736;23.346;2024-01-11T03:17:35;60.50;;;25.53;;
20623;SDS011;10471;42.736;23.346;2024-01-11T03:20:00;57.90;;;24.97;;
20623;SDS011;10471;42.736;23.346;2024-01-11T03:22:26;57.70;;;25.13;;
20623;SDS011;10471;42.736;23.346;2024-01-11T03:24:51;52.00;;;24.20;;
20623;SDS011;10471;42.736;23.346;2024-01-11T03:27:16;55.10;;;23.17;;
20623;SDS011;10471;42.736;23.346;2024-01-11T03:29:42;48.23;;;22.83;;
20623;SDS011;10471;42.736;23.346;2024-01-11T03:32:07;51.40;;;22.23;;
20623;SDS011;10471;42.736;23.346;2024-01-11T03:34:33;48.43;;;21.33;;
20623;SDS011;10471;42.736;23.346;2024-01-11T03:36:58;50.57;;;21.97;;
20623;SDS011;10471;42.736;23.346;2024-01-11T03:39:24;63.90;;;27.53;;
20623;SDS011;10471;42.736;23.346;2024-01-11T03:41:50;64.03;;;26.03;;
20623;SDS011;10471;42.736;23.346;2024-01-11T03:44:16;62.00;;;26.70;;
20623;SDS011;10471;42.736;23.346;2024-01-11T03:46:41;68.13;;;28.90;;
20623;SDS011;10471;42.736;23.346;2024-01-11T03:49:06;69.17;;;30.97;;
20623;SDS011;10471;42.736;23.346;2024-01-11T03:51:33;63.13;;;26.97;;
20623;SDS011;10471;42.736;23.346;2024-01-11T03:53:59;64.77;;;28.03;;
20623;SDS011;10471;42.736;23.346;2024-01-11T03:56:25;61.80;;;27.57;;
20623;SDS011;10471;42.736;23.346;2024-01-11T03:58:50;59.10;;;26.80;;
20623;SDS011;10471;42.736;23.346;2024-01-11T04:01:15;58.67;;;28.10;;
20623;SDS011;10471;42.736;23.346;2024-01-11T04:03:41;63.60;;;29.40;;
20623;SDS011;10471;42.736;23.346;2024-01-11T04:06:07;60.77;;;30.23;;
20623;SDS011;10471;42.736;23.346;2024-01-11T04:08:32;61.63;;;30.43;;
20623;SDS011;10471;42.736;23.346;2024-01-11T04:10:58;63.57;;;29.93;;
20623;SDS011;10471;42.736;23.346;2024-01-11T04:13:26;63.70;;;28.10;;
20623;SDS011;10471;42.736;23.346;2024-01-11T04:15:51;52.97;;;24.47;;
20623;SDS011;10471;42.736;23.346;2024-01-11T04:18:17;58.27;;;25.37;;
20623;SDS011;10471;42.736;23.346;2024-01-11T04:20:42;53.80;;;25.70;;
20623;SDS011;10471;42.736;23.346;2024-01-11T04:23:07;60.93;;;26.63;;
20623;SDS011;10471;42.736;23.346;2024-01-11T04:25:33;64.20;;;30.57;;
20623;SDS011;10471;42.736;23.346;2024-01-11T04:27:58;82.23;;;36.47;;
20623;SDS011;10471;42.736;23.346;2024-01-11T04:30:23;79.93;;;36.73;;
20623;SDS011;10471;42.736;23.346;2024-01-11T04:32:49;87.07;;;35.07;;
20623;SDS011;10471;42.736;23.346;2024-01-11T04:35:14;70.23;;;31.10;;
20623;SDS011;10471;42.736;23.346;2024-01-11T04:37:39;60.57;;;27.97;;
20623;SDS011;10471;42.736;23.346;2024-01-11T04:40:06;64.30;;;29.20;;
20623;SDS011;10471;42.736;23.346;2024-01-11T04:42:32;62.97;;;28.23;;
20623;SDS011;10471;42.736;23.346;2024-01-11T04:44:57;55.10;;;26.37;;
20623;SDS011;10471;42.736;23.346;2024-01-11T04:47:23;80.03;;;34.33;;
20623;SDS011;10471;42.736;23.346;2024-01-11T04:49:48;76.00;;;32.00;;
20623;SDS011;10471;42.736;23.346;2024-01-11T04:52:13;94.10;;;35.30;;
20623;SDS011;10471;42.736;23.346;2024-01-11T04:54:39;101.57;;;36.13;;
20623;SDS011;10471;42.736;23.346;2024-01-11T04:57:04;96.77;;;35.97;;
20623;SDS011;10471;42.736;23.346;2024-01-11T04:59:30;77.07;;;32.27;;
20623;SDS011;10471;42.736;23.346;2024-01-11T05:01:55;73.17;;;31.73;;
20623;SDS011;10471;42.736;23.346;2024-01-11T05:04:21;82.13;;;32.27;;
20623;SDS011;10471;42.736;23.346;2024-01-11T05:06:46;78.33;;;31.37;;
20623;SDS011;10471;42.736;23.346;2024-01-11T05:09:12;74.40;;;31.57;;
20623;SDS011;10471;42.736;23.346;2024-01-11T05:11:37;72.70;;;31.70;;
20623;SDS011;10471;42.736;23.346;2024-01-11T05:14:02;64.20;;;29.27;;
20623;SDS011;10471;42.736;23.346;2024-01-11T05:16:28;76.80;;;30.53;;
20623;SDS011;10471;42.736;23.346;2024-01-11T05:18:55;79.67;;;30.90;;
20623;SDS011;10471;42.736;23.346;2024-01-11T05:21:22;73.13;;;30.67;;
20623;SDS011;10471;42.736;23.346;2024-01-11T05:23:48;76.67;;;32.07;;
20623;SDS011;10471;42.736;23.346;2024-01-11T05:26:16;78.30;;;33.23;;
20623;SDS011;10471;42.736;23.346;2024-01-11T05:28:43;79.83;;;34.30;;
20623;SDS011;10471;42.736;23.346;2024-01-11T05:31:12;89.90;;;33.17;;
20623;SDS011;10471;42.736;23.346;2024-01-11T05:33:42;76.50;;;32.13;;
20623;SDS011;10471;42.736;23.346;2024-01-11T05:36:08;86.10;;;33.33;;
20623;SDS011;10471;42.736;23.346;2024-01-11T05:38:34;74.93;;;32.53;;
20623;SDS011;10471;42.736;23.346;2024-01-11T05:40:59;78.07;;;31.77;;
20623;SDS011;10471;42.736;23.346;2024-01-11T05:43:25;69.27;;;30.40;;
20623;SDS011;10471;42.736;23.346;2024-01-11T05:45:51;71.37;;;30.27;;
20623;SDS011;10471;42.736;23.346;2024-01-11T05:48:16;64.50;;;29.27;;
20623;SDS011;10471;42.736;23.346;2024-01-11T05:50:43;69.43;;;31.00;;
20623;SDS011;10471;42.736;23.346;2024-01-11T05:53:09;83.03;;;30.53;;
20623;SDS011;10471;42.736;23.346;2024-01-11T05:55:35;74.90;;;32.40;;
20623;SDS011;10471;42.736;23.346;2024-01-11T05:58:00;94.93;;;40.13;;
20623;SDS011;10471;42.736;23.346;2024-01-11T06:00:26;76.33;;;35.77;;
20623;SDS011;10471;42.736;23.346;2024-01-11T06:02:51;84.97;;;35.87;;
20623;SDS011;10471;42.736;23.346;2024-01-11T06:05:17;94.53;;;41.87;;
20623;SDS011;10471;42.736;23.346;2024-01-11T06:07:42;79.73;;;35.40;;
20623;SDS011;10471;42.736;23.346;2024-01-11T06:10:07;73.63;;;35.07;;
20623;SDS011;10471;42.736;23.346;2024-01-11T06:12:34;70.00;;;33.60;;
20623;SDS011;10471;42.736;23.346;2024-01-11T06:15:00;71.70;;;33.03;;
20623;SDS011;10471;42.736;23.346;2024-01-11T06:17:26;73.70;;;32.17;;
20623;SDS011;10471;42.736;23.346;2024-01-11T06:19:52;84.80;;;33.00;;
20623;SDS011;10471;42.736;23.346;2024-01-11T06:22:17;75.97;;;33.00;;
20623;SDS011;10471;42.736;23.346;2024-01-11T06:24:43;74.83;;;34.03;;
20623;SDS011;10471;42.736;23.346;2024-01-11T06:27:08;75.50;;;32.77;;
20623;SDS011;10471;42.736;23.346;2024-01-11T06:29:34;80.03;;;32.40;;
20623;SDS011;10471;42.736;23.346;2024-01-11T06:31:59;75.83;;;31.93;;
20623;SDS011;10471;42.736;23.346;2024-01-11T06:34:24;73.20;;;33.40;;
20623;SDS011;10471;42.736;23.346;2024-01-11T06:36:50;67.67;;;32.60;;
20623;SDS011;10471;42.736;23.346;2024-01-11T06:39:15;66.87;;;30.73;;
20623;SDS011;10471;42.736;23.346;2024-01-11T06:41:40;70.37;;;31.97;;
20623;SDS011;10471;42.736;23.346;2024-01-11T06:44:06;78.60;;;33.80;;
20623;SDS011;10471;42.736;23.346;2024-01-11T06:46:31;78.37;;;36.07;;
20623;SDS011;10471;42.736;23.346;2024-01-11T06:48:57;83.53;;;35.20;;
20623;SDS011;10471;42.736;23.346;2024-01-11T06:51:22;93.23;;;37.60;;
20623;SDS011;10471;42.736;23.346;2024-01-11T06:53:48;92.87;;;36.37;;
20623;SDS011;10471;42.736;23.346;2024-01-11T06:56:18;85.43;;;36.30;;
20623;SDS011;10471;42.736;23.346;2024-01-11T06:58:45;76.83;;;33.33;;
20623;SDS011;10471;42.736;23.346;2024-01-11T07:01:11;80.53;;;33.80;;
20623;SDS011;10471;42.736;23.346;2024-01-11T07:03:37;79.37;;;35.07;;
20623;SDS011;10471;42.736;23.346;2024-01-11T07:06:03;83.17;;;35.17;;
20623;SDS011;10471;42.736;23.346;2024-01-11T07:08:29;75.07;;;34.10;;
20623;SDS011;10471;42.736;23.346;2024-01-11T07:10:55;69.37;;;31.17;;
20623;SDS011;10471;42.736;23.346;2024-01-11T07:13:20;56.93;;;28.67;;
20623;SDS011;10471;42.736;23.346;2024-01-11T07:15:46;62.23;;;27.63;;
20623;SDS011;10471;42.736;23.346;2024-01-11T07:18:13;59.30;;;27.93;;
20623;SDS011;10471;42.736;23.346;2024-01-11T07:20:38;64.07;;;27.90;;
20623;SDS011;10471;42.736;23.346;2024-01-11T07:23:04;66.17;;;29.43;;
20623;SDS011;10471;42.736;23.346;2024-01-11T07:25:29;65.47;;;28.00;;
20623;SDS011;10471;42.736;23.346;2024-01-11T07:27:55;67.03;;;29.10;;
20623;SDS011;10471;42.736;23.346;2024-01-11T07:30:20;66.97;;;28.93;;
20623;SDS011;10471;42.736;23.346;2024-01-11T07:32:46;63.60;;;27.37;;
20623;SDS011;10471;42.736;23.346;2024-01-11T07:35:11;70.77;;;29.77;;
20623;SDS011;10471;42.736;23.346;2024-01-11T07:37:39;59.83;;;28.70;;
20623;SDS011;10471;42.736;23.346;2024-01-11T07:40:05;63.80;;;29.23;;
20623;SDS011;10471;42.736;23.346;2024-01-11T07:42:38;61.20;;;28.67;;
20623;SDS011;10471;42.736;23.346;2024-01-11T07:45:04;72.77;;;30.13;;
20623;SDS011;10471;42.736;23.346;2024-01-11T07:47:31;64.13;;;30.13;;
20623;SDS011;10471;42.736;23.346;2024-01-11T07:49:56;64.13;;;31.57;;
20623;SDS011;10471;42.736;23.346;2024-01-11T07:52:22;73.23;;;33.40;;
20623;SDS011;10471;42.736;23.346;2024-01-11T07:54:47;86.60;;;34.83;;
20623;SDS011;10471;42.736;23.346;2024-01-11T07:57:13;80.50;;;36.37;;
20623;SDS011;10471;42.736;23.346;2024-01-11T07:59:38;85.80;;;36.70;;
20623;SDS011;10471;42.736;23.346;2024-01-11T08:02:04;83.60;;;36.97;;
20623;SDS011;10471;42.736;23.346;2024-01-11T08:04:31;90.57;;;39.13;;
20623;SDS011;10471;42.736;23.346;2024-01-11T08:06:56;77.77;;;36.23;;
20623;SDS011;10471;42.736;23.346;2024-01-11T08:09:24;75.63;;;35.40;;
20623;SDS011;10471;42.736;23.346;2024-01-11T08:11:53;75.60;;;36.73;;
20623;SDS011;10471;42.736;23.346;2024-01-11T08:14:19;70.13;;;34.37;;
20623;SDS011;10471;42.736;23.346;2024-01-11T08:16:47;66.53;;;35.00;;
20623;SDS011;10471;42.736;23.346;2024-01-11T08:19:12;66.77;;;32.03;;
20623;SDS011;10471;42.736;23.346;2024-01-11T08:21:41;62.73;;;31.60;;
20623;SDS011;10471;42.736;23.346;2024-01-11T08:24:07;57.27;;;32.00;;
20623;SDS011;10471;42.736;23.346;2024-01-11T08:26:32;56.77;;;29.57;;
20623;SDS011;10471;42.736;23.346;2024-01-11T08:28:58;59.60;;;28.73;;
20623;SDS011;10471;42.736;23.346;2024-01-11T08:31:24;58.13;;;30.50;;
20623;SDS011;10471;42.736;23.346;2024-01-11T08:33:49;60.80;;;29.53;;
20623;SDS011;10471;42.736;23.346;2024-01-11T08:36:15;60.83;;;29.17;;
20623;SDS011;10471;42.736;23.346;2024-01-11T08:45:24;48.50;;;24.63;;
20623;SDS011;10471;42.736;23.346;2024-01-11T08:47:50;50.73;;;26.33;;
20623;SDS011;10471;42.736;23.346;2024-01-11T08:50:16;50.83;;;26.60;;
20623;SDS011;10471;42.736;23.346;2024-01-11T08:52:42;52.30;;;26.73;;
20623;SDS011;10471;42.736;23.346;2024-01-11T08:55:08;48.63;;;24.93;;
20623;SDS011;10471;42.736;23.346;2024-01-11T08:57:33;51.40;;;25.60;;
20623;SDS011;10471;42.736;23.346;2024-01-11T09:00:02;52.20;;;26.23;;
20623;SDS011;10471;42.736;23.346;2024-01-11T09:02:29;52.33;;;27.40;;
20623;SDS011;10471;42.736;23.346;2024-01-11T09:04:54;52.57;;;29.33;;
20623;SDS011;10471;42.736;23.346;2024-01-11T09:07:20;56.73;;;29.83;;
20623;SDS011;10471;42.736;23.346;2024-01-11T09:09:45;56.57;;;29.07;;
20623;SDS011;10471;42.736;23.346;2024-01-11T09:12:10;56.43;;;30.70;;
20623;SDS011;10471;42.736;23.346;2024-01-11T09:14:36;63.77;;;30.93;;
20623;SDS011;10471;42.736;23.346;2024-01-11T09:17:01;58.10;;;31.17;;
20623;SDS011;10471;42.736;23.346;2024-01-11T09:19:27;53.43;;;27.20;;
20623;SDS011;10471;42.736;23.346;2024-01-11T09:21:52;62.50;;;31.17;;
20623;SDS011;10471;42.736;23.346;2024-01-11T09:24:18;66.70;;;33.90;;
20623;SDS011;10471;42.736;23.346;2024-01-11T09:26:44;65.17;;;33.63;;
20623;SDS011;10471;42.736;23.346;2024-01-11T09:29:09;70.87;;;33.03;;
20623;SDS011;10471;42.736;23.346;2024-01-11T09:31:34;59.33;;;31.07;;
20623;SDS011;10471;42.736;23.346;2024-01-11T09:34:00;48.93;;;28.43;;
20623;SDS011;10471;42.736;23.346;2024-01-11T09:36:25;55.57;;;29.73;;
20623;SDS011;10471;42.736;23.346;2024-01-11T09:38:51;44.17;;;23.13;;
20623;SDS011;10471;42.736;23.346;2024-01-11T09:41:16;39.90;;;21.97;;
20623;SDS011;10471;42.736;23.346;2024-01-11T09:43:42;49.73;;;25.10;;
20623;SDS011;10471;42.736;23.346;2024-01-11T09:46:08;50.13;;;27.00;;
20623;SDS011;10471;42.736;23.346;2024-01-11T09:48:35;43.03;;;24.03;;
20623;SDS011;10471;42.736;23.346;2024-01-11T09:51:02;59.87;;;24.90;;
20623;SDS011;10471;42.736;23.346;2024-01-11T09:53:32;49.33;;;24.00;;
20623;SDS011;10471;42.736;23.346;2024-01-11T09:55:58;38.30;;;22.40;;
20623;SDS011;10471;42.736;23.346;2024-01-11T09:58:25;41.70;;;19.97;;
20623;SDS011;10471;42.736;23.346;2024-01-11T10:00:53;40.90;;;20.27;;
20623;SDS011;10471;42.736;23.346;2024-01-11T10:03:19;45.80;;;22.10;;
20623;SDS011;10471;42.736;23.346;2024-01-11T10:05:46;40.33;;;21.17;;
20623;SDS011;10471;42.736;23.346;2024-01-11T10:08:14;41.23;;;21.60;;
20623;SDS011;10471;42.736;23.346;2024-01-11T10:10:40;46.07;;;24.43;;
20623;SDS011;10471;42.736;23.346;2024-01-11T10:13:05;44.00;;;24.27;;
20623;SDS011;10471;42.736;23.346;2024-01-11T10:15:31;35.80;;;20.97;;
20623;SDS011;10471;42.736;23.346;2024-01-11T10:17:56;40.63;;;20.47;;
20623;SDS011;10471;42.736;23.346;2024-01-11T10:20:22;42.67;;;20.67;;
20623;SDS011;10471;42.736;23.346;2024-01-11T10:22:49;36.53;;;20.27;;
20623;SDS011;10471;42.736;23.346;2024-01-11T10:25:15;33.83;;;17.37;;
20623;SDS011;10471;42.736;23.346;2024-01-11T10:27:43;41.00;;;19.63;;
20623;SDS011;10471;42.736;23.346;2024-01-11T10:30:10;39.13;;;19.17;;
20623;SDS011;10471;42.736;23.346;2024-01-11T10:32:38;29.07;;;16.47;;
20623;SDS011;10471;42.736;23.346;2024-01-11T10:35:06;45.70;;;22.53;;
20623;SDS011;10471;42.736;23.346;2024-01-11T10:37:32;71.97;;;35.63;;
20623;SDS011;10471;42.736;23.346;2024-01-11T10:39:58;58.53;;;27.13;;
20623;SDS011;10471;42.736;23.346;2024-01-11T10:42:30;40.43;;;20.07;;
20623;SDS011;10471;42.736;23.346;2024-01-11T10:44:56;38.43;;;19.23;;
20623;SDS011;10471;42.736;23.346;2024-01-11T10:47:30;46.20;;;23.93;;
20623;SDS011;10471;42.736;23.346;2024-01-11T10:49:57;31.73;;;18.47;;
20623;SDS011;10471;42.736;23.346;2024-01-11T10:52:28;39.40;;;18.00;;
20623;SDS011;10471;42.736;23.346;2024-01-11T10:55:01;34.77;;;18.23;;
20623;SDS011;10471;42.736;23.346;2024-01-11T10:57:27;44.10;;;21.20;;
20623;SDS011;10471;42.736;23.346;2024-01-11T10:59:54;45.03;;;22.40;;
20623;SDS011;10471;42.736;23.346;2024-01-11T11:02:20;34.07;;;19.67;;
20623;SDS011;10471;42.736;23.346;2024-01-11T11:04:47;34.13;;;17.33;;
20623;SDS011;10471;42.736;23.346;2024-01-11T11:07:18;44.93;;;21.40;;
20623;SDS011;10471;42.736;23.346;2024-01-11T11:09:44;43.63;;;21.80;;
20623;SDS011;10471;42.736;23.346;2024-01-11T11:12:11;36.40;;;17.73;;
20623;SDS011;10471;42.736;23.346;2024-01-11T11:14:38;36.40;;;17.27;;
20623;SDS011;10471;42.736;23.346;2024-01-11T11:17:03;32.27;;;16.13;;
20623;SDS011;10471;42.736;23.346;2024-01-11T11:19:30;27.27;;;16.13;;
20623;SDS011;10471;42.736;23.346;2024-01-11T11:21:56;30.63;;;15.60;;
20623;SDS011;10471;42.736;23.346;2024-01-11T11:24:21;30.80;;;15.07;;
20623;SDS011;10471;42.736;23.346;2024-01-11T11:26:47;26.93;;;14.50;;
20623;SDS011;10471;42.736;23.346;2024-01-11T11:29:12;26.63;;;14.13;;
20623;SDS011;10471;42.736;23.346;2024-01-11T11:31:44;34.23;;;16.13;;
20623;SDS011;10471;42.736;23.346;2024-01-11T11:34:19;34.20;;;18.30;;
20623;SDS011;10471;42.736;23.346;2024-01-11T11:36:45;35.47;;;17.03;;
20623;SDS011;10471;42.736;23.346;2024-01-11T11:39:11;31.80;;;15.47;;
20623;SDS011;10471;42.736;23.346;2024-01-11T11:41:38;29.83;;;16.40;;
20623;SDS011;10471;42.736;23.346;2024-01-11T11:44:04;27.60;;;15.70;;
20623;SDS011;10471;42.736;23.346;2024-01-11T11:46:31;26.80;;;14.90;;
20623;SDS011;10471;42.736;23.346;2024-01-11T11:48:58;28.53;;;15.90;;
20623;SDS011;10471;42.736;23.346;2024-01-11T11:51:24;28.33;;;15.03;;
20623;SDS011;10471;42.736;23.346;2024-01-11T11:53:50;26.43;;;14.80;;
20623;SDS011;10471;42.736;23.346;2024-01-11T11:56:17;27.40;;;15.43;;
20623;SDS011;10471;42.736;23.346;2024-01-11T11:58:45;28.50;;;15.93;;
20623;SDS011;10471;42.736;23.346;2024-01-11T12:01:14;31.63;;;16.50;;
20623;SDS011;10471;42.736;23.346;2024-01-11T12:03:42;27.37;;;15.60;;
20623;SDS011;10471;42.736;23.346;2024-01-11T12:06:13;29.80;;;15.50;;
20623;SDS011;10471;42.736;23.346;2024-01-11T12:08:41;24.30;;;14.37;;
20623;SDS011;10471;42.736;23.346;2024-01-11T12:11:08;26.40;;;15.37;;
20623;SDS011;10471;42.736;23.346;2024-01-11T12:13:34;23.27;;;14.40;;
20623;SDS011;10471;42.736;23.346;2024-01-11T12:16:00;22.67;;;13.77;;
20623;SDS011;10471;42.736;23.346;2024-01-11T12:18:25;27.83;;;14.30;;
20623;SDS011;10471;42.736;23.346;2024-01-11T12:20:51;22.40;;;12.90;;
20623;SDS011;10471;42.736;23.346;2024-01-11T12:23:18;23.33;;;13.37;;
20623;SDS011;10471;42.736;23.346;2024-01-11T12:25:44;22.83;;;11.57;;
20623;SDS011;10471;42.736;23.346;2024-01-11T12:28:09;25.30;;;12.73;;
20623;SDS011;10471;42.736;23.346;2024-01-11T12:30:35;27.03;;;14.57;;
20623;SDS011;10471;42.736;23.346;2024-01-11T12:33:01;23.27;;;13.13;;
20623;SDS011;10471;42.736;23.346;2024-01-11T12:35:27;19.57;;;10.47;;
20623;SDS011;10471;42.736;23.346;2024-01-11T12:37:59;16.37;;;10.53;;
20623;SDS011;10471;42.736;23.346;2024-01-11T12:40:26;17.03;;;10.33;;
20623;SDS011;10471;42.736;23.346;2024-01-11T12:42:52;21.90;;;10.57;;
20623;SDS011;10471;42.736;23.346;2024-01-11T12:45:19;17.33;;;8.60;;
20623;SDS011;10471;42.736;23.346;2024-01-11T12:47:45;8.83;;;5.57;;
20623;SDS011;10471;42.736;23.346;2024-01-11T12:50:13;12.17;;;6.63;;
20623;SDS011;10471;42.736;23.346;2024-01-11T12:52:39;10.83;;;5.70;;
20623;SDS011;10471;42.736;23.346;2024-01-11T12:55:07;11.70;;;6.17;;
20623;SDS011;10471;42.736;23.346;2024-01-11T12:57:42;12.70;;;7.17;;
20623;SDS011;10471;42.736;23.346;2024-01-11T13:00:11;18.77;;;6.00;;
20623;SDS011;10471;42.736;23.346;2024-01-11T13:02:38;10.97;;;5.90;;
20623;SDS011;10471;42.736;23.346;2024-01-11T13:05:04;12.83;;;6.37;;
20623;SDS011;10471;42.736;23.346;2024-01-11T13:07:30;12.33;;;6.00;;
20623;SDS011;10471;42.736;23.346;2024-01-11T13:09:56;14.03;;;7.17;;
20623;SDS011;10471;42.736;23.346;2024-01-11T13:12:21;10.60;;;5.73;;
20623;SDS011;10471;42.736;23.346;2024-01-11T13:14:47;17.67;;;7.60;;
20623;SDS011;10471;42.736;23.346;2024-01-11T13:17:13;12.63;;;6.87;;
20623;SDS011;10471;42.736;23.346;2024-01-11T13:19:39;10.80;;;6.37;;
20623;SDS011;10471;42.736;23.346;2024-01-11T13:22:04;10.20;;;6.87;;
20623;SDS011;10471;42.736;23.346;2024-01-11T13:24:29;10.70;;;6.07;;
20623;SDS011;10471;42.736;23.346;2024-01-11T13:26:55;9.77;;;5.70;;
20623;SDS011;10471;42.736;23.346;2024-01-11T13:29:20;9.60;;;5.33;;
20623;SDS011;10471;42.736;23.346;2024-01-11T13:31:46;7.63;;;4.67;;
20623;SDS011;10471;42.736;23.346;2024-01-11T13:34:11;10.20;;;6.83;;
20623;SDS011;10471;42.736;23.346;2024-01-11T13:36:36;14.30;;;7.53;;
20623;SDS011;10471;42.736;23.346;2024-01-11T13:39:02;10.77;;;6.80;;
20623;SDS011;10471;42.736;23.346;2024-01-11T13:41:28;12.80;;;7.47;;
20623;SDS011;10471;42.736;23.346;2024-01-11T13:43:53;11.87;;;7.60;;
20623;SDS011;10471;42.736;23.346;2024-01-11T13:46:19;13.27;;;7.20;;
20623;SDS011;10471;42.736;23.346;2024-01-11T13:48:45;17.47;;;9.43;;
20623;SDS011;10471;42.736;23.346;2024-01-11T13:51:11;13.57;;;7.87;;
20623;SDS011;10471;42.736;23.346;2024-01-11T13:53:38;12.40;;;6.93;;
20623;SDS011;10471;42.736;23.346;2024-01-11T13:56:03;12.87;;;7.77;;
20623;SDS011;10471;42.736;23.346;2024-01-11T13:58:29;12.47;;;7.30;;
20623;SDS011;10471;42.736;23.346;2024-01-11T14:00:54;14.10;;;7.50;;
20623;SDS011;10471;42.736;23.346;2024-01-11T14:03:20;15.10;;;7.90;;
20623;SDS011;10471;42.736;23.346;2024-01-11T14:05:45;21.67;;;10.27;;
20623;SDS011;10471;42.736;23.346;2024-01-11T14:08:11;17.53;;;9.53;;
20623;SDS011;10471;42.736;23.346;2024-01-11T14:10:36;20.17;;;11.57;;
20623;SDS011;10471;42.736;23.346;2024-01-11T14:13:02;23.60;;;10.60;;